sensor_id;sensor_type;location;lat;lon;timestamp;temperature;humidity
27797;DHT22;15177;50.844;4.412;2023-03-01T00:01:29;2.50;99.90
27797;DHT22;15177;50.844;4.412;2023-03-01T00:03:56;2.50;99.90
27797;DHT22;15177;50.844;4.412;2023-03-01T00:06:22;2.50;99.90
27797;DHT22;15177;50.844;4.412;2023-03-01T00:08:48;2.60;99.90
27797;DHT22;15177;50.844;4.412;2023-03-01T00:11:23;2.60;99.90
27797;DHT22;15177;50.844;4.412;2023-03-01T00:13:52;2.50;99.90
27797;DHT22;15177;50.844;4.412;2023-03-01T00:16:22;2.40;99.90
27797;DHT22;15177;50.844;4.412;2023-03-01T00:18:48;2.30;99.90
27797;DHT22;15177;50.844;4.412;2023-03-01T00:21:15;2.50;99.90
27797;DHT22;15177;50.844;4.412;2023-03-01T00:23:41;2.70;99.90
27797;DHT22;15177;50.844;4.412;2023-03-01T00:26:09;2.70;99.90
27797;DHT22;15177;50.844;4.412;2023-03-01T00:28:35;2.70;99.90
27797;DHT22;15177;50.844;4.412;2023-03-01T00:31:06;2.60;99.90
27797;DHT22;15177;50.844;4.412;2023-03-01T00:33:32;2.60;99.90
27797;DHT22;15177;50.844;4.412;2023-03-01T00:35:58;2.60;99.90
27797;DHT22;15177;50.844;4.412;2023-03-01T00:38:24;2.70;99.90
27797;DHT22;15177;50.844;4.412;2023-03-01T00:40:50;2.70;99.90
27797;DHT22;15177;50.844;4.412;2023-03-01T00:43:15;2.80;99.90
27797;DHT22;15177;50.844;4.412;2023-03-01T00:45:41;2.80;99.90
27797;DHT22;15177;50.844;4.412;2023-03-01T00:48:08;2.60;99.90
27797;DHT22;15177;50.844;4.412;2023-03-01T00:50:34;2.60;99.90
27797;DHT22;15177;50.844;4.412;2023-03-01T00:52:59;2.50;99.90
27797;DHT22;15177;50.844;4.412;2023-03-01T00:55:25;2.60;99.90
27797;DHT22;15177;50.844;4.412;2023-03-01T00:57:51;2.60;99.90
27797;DHT22;15177;50.844;4.412;2023-03-01T01:00:17;2.60;99.90
27797;DHT22;15177;50.844;4.412;2023-03-01T01:02:43;2.60;99.90
27797;DHT22;15177;50.844;4.412;2023-03-01T01:05:09;2.60;99.90
27797;DHT22;15177;50.844;4.412;2023-03-01T01:07:35;2.60;99.90
27797;DHT22;15177;50.844;4.412;2023-03-01T01:10:01;2.70;99.90
27797;DHT22;15177;50.844;4.412;2023-03-01T01:12:27;2.50;99.90
27797;DHT22;15177;50.844;4.412;2023-03-01T01:14:52;2.50;99.90
27797;DHT22;15177;50.844;4.412;2023-03-01T01:17:18;2.30;99.90
27797;DHT22;15177;50.844;4.412;2023-03-01T01:19:43;2.30;99.90
27797;DHT22;15177;50.844;4.412;2023-03-01T01:22:09;2.30;99.90
27797;DHT22;15177;50.844;4.412;2023-03-01T01:24:35;2.30;99.90
27797;DHT22;15177;50.844;4.412;2023-03-01T01:27:00;2.30;99.90
27797;DHT22;15177;50.844;4.412;2023-03-01T01:29:26;2.30;99.90
27797;DHT22;15177;50.844;4.412;2023-03-01T01:31:52;2.30;99.90
27797;DHT22;15177;50.844;4.412;2023-03-01T01:34:20;2.10;99.90
27797;DHT22;15177;50.844;4.412;2023-03-01T01:36:51;2.30;99.90
27797;DHT22;15177;50.844;4.412;2023-03-01T01:39:18;2.30;99.90
27797;DHT22;15177;50.844;4.412;2023-03-01T01:41:44;2.30;99.90
27797;DHT22;15177;50.844;4.412;2023-03-01T01:49:41;2.20;99.90
27797;DHT22;15177;50.844;4.412;2023-03-01T01:52:11;2.10;99.90
27797;DHT22;15177;50.844;4.412;2023-03-01T01:54:58;2.00;99.90
27797;DHT22;15177;50.844;4.412;2023-03-01T01:57:33;2.10;99.90
27797;DHT22;15177;50.844;4.412;2023-03-01T02:00:13;2.20;99.90
27797;DHT22;15177;50.844;4.412;2023-03-01T02:02:40;2.10;99.90
27797;DHT22;15177;50.844;4.412;2023-03-01T02:07:54;2.10;99.90
27797;DHT22;15177;50.844;4.412;2023-03-01T02:10:23;2.00;99.90
27797;DHT22;15177;50.844;4.412;2023-03-01T02:12:50;2.00;99.90
27797;DHT22;15177;50.844;4.412;2023-03-01T02:15:16;2.00;99.90
27797;DHT22;15177;50.844;4.412;2023-03-01T02:17:42;2.00;99.90
27797;DHT22;15177;50.844;4.412;2023-03-01T02:22:37;1.90;99.90
27797;DHT22;15177;50.844;4.412;2023-03-01T02:30:38;2.00;99.90
27797;DHT22;15177;50.844;4.412;2023-03-01T02:33:25;2.00;99.90
27797;DHT22;15177;50.844;4.412;2023-03-01T02:35:51;1.90;99.90
27797;DHT22;15177;50.844;4.412;2023-03-01T02:38:18;1.80;99.90
27797;DHT22;15177;50.844;4.412;2023-03-01T02:40:45;1.80;99.90
27797;DHT22;15177;50.844;4.412;2023-03-01T02:43:13;1.80;99.90
27797;DHT22;15177;50.844;4.412;2023-03-01T02:45:50;1.60;99.90
27797;DHT22;15177;50.844;4.412;2023-03-01T02:48:17;1.80;99.90
27797;DHT22;15177;50.844;4.412;2023-03-01T02:51:03;1.70;99.90
27797;DHT22;15177;50.844;4.412;2023-03-01T02:53:46;1.80;99.90
27797;DHT22;15177;50.844;4.412;2023-03-01T02:56:14;1.90;99.90
27797;DHT22;15177;50.844;4.412;2023-03-01T02:58:41;1.90;99.90
27797;DHT22;15177;50.844;4.412;2023-03-01T03:01:12;1.80;99.90
27797;DHT22;15177;50.844;4.412;2023-03-01T03:03:39;1.60;99.90
27797;DHT22;15177;50.844;4.412;2023-03-01T03:06:04;1.60;99.90
27797;DHT22;15177;50.844;4.412;2023-03-01T03:08:30;1.60;99.90
27797;DHT22;15177;50.844;4.412;2023-03-01T03:10:56;1.60;99.90
27797;DHT22;15177;50.844;4.412;2023-03-01T03:13:21;1.60;99.90
27797;DHT22;15177;50.844;4.412;2023-03-01T03:15:47;1.70;99.90
27797;DHT22;15177;50.844;4.412;2023-03-01T03:18:16;1.80;99.90
27797;DHT22;15177;50.844;4.412;2023-03-01T03:20:43;1.70;99.90
27797;DHT22;15177;50.844;4.412;2023-03-01T03:23:09;1.60;99.90
27797;DHT22;15177;50.844;4.412;2023-03-01T03:25:35;1.50;99.90
27797;DHT22;15177;50.844;4.412;2023-03-01T03:28:06;1.60;99.90
27797;DHT22;15177;50.844;4.412;2023-03-01T03:30:37;1.60;99.90
27797;DHT22;15177;50.844;4.412;2023-03-01T03:33:05;1.60;99.90
27797;DHT22;15177;50.844;4.412;2023-03-01T03:35:43;1.60;99.90
27797;DHT22;15177;50.844;4.412;2023-03-01T03:38:11;1.60;99.90
27797;DHT22;15177;50.844;4.412;2023-03-01T03:40:47;1.60;99.90
27797;DHT22;15177;50.844;4.412;2023-03-01T03:43:21;1.50;99.90
27797;DHT22;15177;50.844;4.412;2023-03-01T03:45:51;1.40;99.90
27797;DHT22;15177;50.844;4.412;2023-03-01T03:48:17;1.30;99.90
27797;DHT22;15177;50.844;4.412;2023-03-01T03:50:48;1.30;99.90
27797;DHT22;15177;50.844;4.412;2023-03-01T03:53:15;1.40;99.90
27797;DHT22;15177;50.844;4.412;2023-03-01T03:55:41;1.40;99.90
27797;DHT22;15177;50.844;4.412;2023-03-01T03:58:09;1.40;99.90
27797;DHT22;15177;50.844;4.412;2023-03-01T04:00:38;1.40;99.90
27797;DHT22;15177;50.844;4.412;2023-03-01T04:03:04;1.40;99.90
27797;DHT22;15177;50.844;4.412;2023-03-01T04:05:30;1.40;99.90
27797;DHT22;15177;50.844;4.412;2023-03-01T04:07:57;1.30;99.90
27797;DHT22;15177;50.844;4.412;2023-03-01T04:10:30;1.30;99.90
27797;DHT22;15177;50.844;4.412;2023-03-01T04:12:56;1.30;99.90
27797;DHT22;15177;50.844;4.412;2023-03-01T04:15:23;1.20;99.90
27797;DHT22;15177;50.844;4.412;2023-03-01T04:17:50;0.90;99.90
27797;DHT22;15177;50.844;4.412;2023-03-01T04:20:23;0.70;99.90
27797;DHT22;15177;50.844;4.412;2023-03-01T04:25:53;1.00;99.90
27797;DHT22;15177;50.844;4.412;2023-03-01T04:28:38;1.00;99.90
27797;DHT22;15177;50.844;4.412;2023-03-01T04:31:23;1.10;99.90
27797;DHT22;15177;50.844;4.412;2023-03-01T04:33:54;1.00;99.90
27797;DHT22;15177;50.844;4.412;2023-03-01T04:36:23;0.90;99.90
27797;DHT22;15177;50.844;4.412;2023-03-01T04:38:49;1.10;99.90
27797;DHT22;15177;50.844;4.412;2023-03-01T04:41:17;1.10;99.90
27797;DHT22;15177;50.844;4.412;2023-03-01T04:43:43;1.10;99.90
27797;DHT22;15177;50.844;4.412;2023-03-01T04:46:12;1.00;99.90
27797;DHT22;15177;50.844;4.412;2023-03-01T04:48:39;1.10;99.90
27797;DHT22;15177;50.844;4.412;2023-03-01T04:51:06;1.10;99.90
27797;DHT22;15177;50.844;4.412;2023-03-01T04:53:33;1.00;99.90
27797;DHT22;15177;50.844;4.412;2023-03-01T04:56:00;1.00;99.90
27797;DHT22;15177;50.844;4.412;2023-03-01T04:58:27;1.00;99.90
27797;DHT22;15177;50.844;4.412;2023-03-01T05:00:53;1.00;99.90
27797;DHT22;15177;50.844;4.412;2023-03-01T05:03:19;0.80;99.90
27797;DHT22;15177;50.844;4.412;2023-03-01T05:05:47;0.90;99.90
27797;DHT22;15177;50.844;4.412;2023-03-01T05:08:14;0.90;99.90
27797;DHT22;15177;50.844;4.412;2023-03-01T05:10:53;0.90;99.90
27797;DHT22;15177;50.844;4.412;2023-03-01T05:13:20;0.70;99.90
27797;DHT22;15177;50.844;4.412;2023-03-01T05:15:48;0.60;99.90
27797;DHT22;15177;50.844;4.412;2023-03-01T05:18:14;0.60;99.90
27797;DHT22;15177;50.844;4.412;2023-03-01T05:20:40;0.50;99.90
27797;DHT22;15177;50.844;4.412;2023-03-01T05:23:06;0.50;99.90
27797;DHT22;15177;50.844;4.412;2023-03-01T05:25:35;0.50;99.90
27797;DHT22;15177;50.844;4.412;2023-03-01T05:28:06;0.60;99.90
27797;DHT22;15177;50.844;4.412;2023-03-01T05:30:33;0.60;99.90
27797;DHT22;15177;50.844;4.412;2023-03-01T05:33:00;0.60;99.90
27797;DHT22;15177;50.844;4.412;2023-03-01T05:35:26;0.70;99.90
27797;DHT22;15177;50.844;4.412;2023-03-01T05:37:51;0.70;99.90
27797;DHT22;15177;50.844;4.412;2023-03-01T05:40:20;0.70;99.90
27797;DHT22;15177;50.844;4.412;2023-03-01T05:42:48;0.80;99.90
27797;DHT22;15177;50.844;4.412;2023-03-01T05:45:15;0.80;99.90
27797;DHT22;15177;50.844;4.412;2023-03-01T05:47:42;0.70;99.90
27797;DHT22;15177;50.844;4.412;2023-03-01T05:50:23;0.70;99.90
27797;DHT22;15177;50.844;4.412;2023-03-01T05:53:17;0.60;99.90
27797;DHT22;15177;50.844;4.412;2023-03-01T05:55:45;0.60;99.90
27797;DHT22;15177;50.844;4.412;2023-03-01T05:58:15;0.70;99.90
27797;DHT22;15177;50.844;4.412;2023-03-01T06:00:42;0.70;99.90
27797;DHT22;15177;50.844;4.412;2023-03-01T06:03:14;0.60;99.90
27797;DHT22;15177;50.844;4.412;2023-03-01T06:05:40;0.50;99.90
27797;DHT22;15177;50.844;4.412;2023-03-01T06:08:06;0.60;99.90
27797;DHT22;15177;50.844;4.412;2023-03-01T06:10:32;0.60;99.90
27797;DHT22;15177;50.844;4.412;2023-03-01T06:12:58;0.30;99.90
27797;DHT22;15177;50.844;4.412;2023-03-01T06:15:27;0.30;99.90
27797;DHT22;15177;50.844;4.412;2023-03-01T06:17:54;0.30;99.90
27797;DHT22;15177;50.844;4.412;2023-03-01T06:20:25;0.30;99.90
27797;DHT22;15177;50.844;4.412;2023-03-01T06:22:52;0.40;99.90
27797;DHT22;15177;50.844;4.412;2023-03-01T06:25:20;0.60;99.90
27797;DHT22;15177;50.844;4.412;2023-03-01T06:27:47;0.50;99.90
27797;DHT22;15177;50.844;4.412;2023-03-01T06:30:16;0.60;99.90
27797;DHT22;15177;50.844;4.412;2023-03-01T06:32:42;0.70;99.90
27797;DHT22;15177;50.844;4.412;2023-03-01T06:35:09;0.70;99.90
27797;DHT22;15177;50.844;4.412;2023-03-01T06:37:35;0.80;99.90
27797;DHT22;15177;50.844;4.412;2023-03-01T06:40:03;0.80;99.90
27797;DHT22;15177;50.844;4.412;2023-03-01T06:42:37;0.70;99.90
27797;DHT22;15177;50.844;4.412;2023-03-01T06:45:04;0.50;99.90
27797;DHT22;15177;50.844;4.412;2023-03-01T06:47:30;0.40;99.90
27797;DHT22;15177;50.844;4.412;2023-03-01T06:49:58;0.40;99.90
27797;DHT22;15177;50.844;4.412;2023-03-01T06:52:24;0.50;99.90
27797;DHT22;15177;50.844;4.412;2023-03-01T06:54:50;0.30;99.90
27797;DHT22;15177;50.844;4.412;2023-03-01T06:57:16;0.40;99.90
27797;DHT22;15177;50.844;4.412;2023-03-01T06:59:42;0.50;99.90
27797;DHT22;15177;50.844;4.412;2023-03-01T07:02:13;0.60;99.90
27797;DHT22;15177;50.844;4.412;2023-03-01T07:04:40;0.50;99.90
27797;DHT22;15177;50.844;4.412;2023-03-01T07:07:06;0.60;99.90
27797;DHT22;15177;50.844;4.412;2023-03-01T07:09:32;0.70;99.90
27797;DHT22;15177;50.844;4.412;2023-03-01T07:11:58;0.70;99.90
27797;DHT22;15177;50.844;4.412;2023-03-01T07:14:24;0.50;99.90
27797;DHT22;15177;50.844;4.412;2023-03-01T07:16:51;0.40;99.90
27797;DHT22;15177;50.844;4.412;2023-03-01T07:19:17;0.70;99.90
27797;DHT22;15177;50.844;4.412;2023-03-01T07:21:43;0.90;99.90
27797;DHT22;15177;50.844;4.412;2023-03-01T07:24:10;1.10;99.90
27797;DHT22;15177;50.844;4.412;2023-03-01T07:26:37;1.20;99.90
27797;DHT22;15177;50.844;4.412;2023-03-01T07:29:04;2.10;99.90
27797;DHT22;15177;50.844;4.412;2023-03-01T07:31:30;3.30;99.90
27797;DHT22;15177;50.844;4.412;2023-03-01T07:33:56;4.40;99.90
27797;DHT22;15177;50.844;4.412;2023-03-01T07:36:22;5.50;99.90
27797;DHT22;15177;50.844;4.412;2023-03-01T07:38:48;5.90;99.90
27797;DHT22;15177;50.844;4.412;2023-03-01T07:41:14;6.60;99.90
27797;DHT22;15177;50.844;4.412;2023-03-01T07:43:41;7.30;99.90
27797;DHT22;15177;50.844;4.412;2023-03-01T07:46:07;7.90;99.90
27797;DHT22;15177;50.844;4.412;2023-03-01T07:48:33;8.80;98.90
27797;DHT22;15177;50.844;4.412;2023-03-01T07:51:05;9.60;94.50
27797;DHT22;15177;50.844;4.412;2023-03-01T07:53:34;9.70;91.60
27797;DHT22;15177;50.844;4.412;2023-03-01T07:56:08;8.90;93.80
27797;DHT22;15177;50.844;4.412;2023-03-01T07:58:35;9.40;93.10
27797;DHT22;15177;50.844;4.412;2023-03-01T08:01:11;9.10;92.40
27797;DHT22;15177;50.844;4.412;2023-03-01T08:03:37;9.50;91.60
27797;DHT22;15177;50.844;4.412;2023-03-01T08:06:05;9.60;90.40
27797;DHT22;15177;50.844;4.412;2023-03-01T08:08:32;10.10;90.70
27797;DHT22;15177;50.844;4.412;2023-03-01T08:10:59;10.60;85.90
27797;DHT22;15177;50.844;4.412;2023-03-01T08:13:25;10.70;83.40
27797;DHT22;15177;50.844;4.412;2023-03-01T08:15:51;10.70;83.90
27797;DHT22;15177;50.844;4.412;2023-03-01T08:18:18;10.50;84.20
27797;DHT22;15177;50.844;4.412;2023-03-01T08:20:44;11.10;82.30
27797;DHT22;15177;50.844;4.412;2023-03-01T08:23:12;11.80;79.40
27797;DHT22;15177;50.844;4.412;2023-03-01T08:25:38;12.10;76.80
27797;DHT22;15177;50.844;4.412;2023-03-01T08:28:04;12.30;74.40
27797;DHT22;15177;50.844;4.412;2023-03-01T08:30:30;12.40;73.80
27797;DHT22;15177;50.844;4.412;2023-03-01T08:32:56;12.70;72.20
27797;DHT22;15177;50.844;4.412;2023-03-01T08:35:22;12.60;71.90
27797;DHT22;15177;50.844;4.412;2023-03-01T08:37:48;12.60;71.00
27797;DHT22;15177;50.844;4.412;2023-03-01T08:40:14;12.90;71.20
27797;DHT22;15177;50.844;4.412;2023-03-01T08:42:41;12.60;69.10
27797;DHT22;15177;50.844;4.412;2023-03-01T08:45:09;12.20;70.90
27797;DHT22;15177;50.844;4.412;2023-03-01T08:47:34;12.20;70.40
27797;DHT22;15177;50.844;4.412;2023-03-01T08:50:00;11.90;72.50
27797;DHT22;15177;50.844;4.412;2023-03-01T08:52:26;11.80;72.90
27797;DHT22;15177;50.844;4.412;2023-03-01T08:54:52;12.80;71.00
27797;DHT22;15177;50.844;4.412;2023-03-01T08:57:18;13.10;68.00
27797;DHT22;15177;50.844;4.412;2023-03-01T08:59:44;12.60;68.80
27797;DHT22;15177;50.844;4.412;2023-03-01T09:02:15;13.00;68.50
27797;DHT22;15177;50.844;4.412;2023-03-01T09:04:41;13.50;67.40
27797;DHT22;15177;50.844;4.412;2023-03-01T09:07:07;12.70;68.20
27797;DHT22;15177;50.844;4.412;2023-03-01T09:09:32;13.10;68.50
27797;DHT22;15177;50.844;4.412;2023-03-01T09:11:58;13.50;66.30
27797;DHT22;15177;50.844;4.412;2023-03-01T09:14:24;13.40;66.30
27797;DHT22;15177;50.844;4.412;2023-03-01T09:16:50;12.70;67.60
27797;DHT22;15177;50.844;4.412;2023-03-01T09:19:16;11.40;71.10
27797;DHT22;15177;50.844;4.412;2023-03-01T09:21:42;11.80;72.10
27797;DHT22;15177;50.844;4.412;2023-03-01T09:24:21;11.60;71.70
27797;DHT22;15177;50.844;4.412;2023-03-01T09:26:47;11.70;71.80
27797;DHT22;15177;50.844;4.412;2023-03-01T09:29:16;12.30;70.40
27797;DHT22;15177;50.844;4.412;2023-03-01T09:31:43;12.80;69.60
27797;DHT22;15177;50.844;4.412;2023-03-01T09:34:09;13.10;67.80
27797;DHT22;15177;50.844;4.412;2023-03-01T09:36:35;12.90;66.70
27797;DHT22;15177;50.844;4.412;2023-03-01T09:39:02;12.60;68.20
27797;DHT22;15177;50.844;4.412;2023-03-01T09:41:49;12.30;68.00
27797;DHT22;15177;50.844;4.412;2023-03-01T09:46:45;12.40;69.30
27797;DHT22;15177;50.844;4.412;2023-03-01T09:49:24;12.30;69.60
27797;DHT22;15177;50.844;4.412;2023-03-01T09:54:24;12.50;68.90
27797;DHT22;15177;50.844;4.412;2023-03-01T10:04:50;11.50;72.50
27797;DHT22;15177;50.844;4.412;2023-03-01T10:07:44;11.00;73.80
27797;DHT22;15177;50.844;4.412;2023-03-01T10:10:45;11.70;71.60
27797;DHT22;15177;50.844;4.412;2023-03-01T10:15:49;12.10;71.20
27797;DHT22;15177;50.844;4.412;2023-03-01T10:18:32;11.50;69.70
27797;DHT22;15177;50.844;4.412;2023-03-01T10:21:01;11.30;72.70
27797;DHT22;15177;50.844;4.412;2023-03-01T10:23:30;11.50;71.80
27797;DHT22;15177;50.844;4.412;2023-03-01T10:29:07;12.20;68.90
27797;DHT22;15177;50.844;4.412;2023-03-01T10:31:46;12.80;67.00
27797;DHT22;15177;50.844;4.412;2023-03-01T10:36:44;11.40;71.00
27797;DHT22;15177;50.844;4.412;2023-03-01T10:39:22;11.90;70.10
27797;DHT22;15177;50.844;4.412;2023-03-01T10:42:00;12.80;67.70
27797;DHT22;15177;50.844;4.412;2023-03-01T10:44:46;12.80;67.00
27797;DHT22;15177;50.844;4.412;2023-03-01T10:47:22;11.90;67.70
27797;DHT22;15177;50.844;4.412;2023-03-01T10:50:21;11.30;69.80
27797;DHT22;15177;50.844;4.412;2023-03-01T10:53:04;11.30;69.50
27797;DHT22;15177;50.844;4.412;2023-03-01T10:55:37;10.60;71.90
27797;DHT22;15177;50.844;4.412;2023-03-01T10:58:20;10.90;72.90
27797;DHT22;15177;50.844;4.412;2023-03-01T11:00:56;11.20;70.50
27797;DHT22;15177;50.844;4.412;2023-03-01T11:05:58;9.60;73.20
27797;DHT22;15177;50.844;4.412;2023-03-01T11:08:42;9.40;75.80
27797;DHT22;15177;50.844;4.412;2023-03-01T11:11:40;9.20;76.10
27797;DHT22;15177;50.844;4.412;2023-03-01T11:14:22;8.60;79.10
27797;DHT22;15177;50.844;4.412;2023-03-01T11:17:00;8.60;81.40
27797;DHT22;15177;50.844;4.412;2023-03-01T11:19:26;8.50;81.80
27797;DHT22;15177;50.844;4.412;2023-03-01T11:22:12;8.60;81.70
27797;DHT22;15177;50.844;4.412;2023-03-01T11:24:43;8.00;83.00
27797;DHT22;15177;50.844;4.412;2023-03-01T11:27:23;7.80;85.50
27797;DHT22;15177;50.844;4.412;2023-03-01T11:30:16;7.50;87.10
27797;DHT22;15177;50.844;4.412;2023-03-01T11:32:53;7.50;89.10
27797;DHT22;15177;50.844;4.412;2023-03-01T11:35:25;7.50;88.50
27797;DHT22;15177;50.844;4.412;2023-03-01T11:54:06;6.60;91.90
27797;DHT22;15177;50.844;4.412;2023-03-01T11:56:54;6.60;92.60
27797;DHT22;15177;50.844;4.412;2023-03-01T11:59:52;6.90;91.90
27797;DHT22;15177;50.844;4.412;2023-03-01T12:05:48;6.60;90.60
27797;DHT22;15177;50.844;4.412;2023-03-01T12:19:47;6.80;92.20
27797;DHT22;15177;50.844;4.412;2023-03-01T12:30:25;7.00;92.40
27797;DHT22;15177;50.844;4.412;2023-03-01T12:38:45;7.30;90.80
27797;DHT22;15177;50.844;4.412;2023-03-01T12:42:10;7.30;90.10
27797;DHT22;15177;50.844;4.412;2023-03-01T12:47:23;7.10;89.80
27797;DHT22;15177;50.844;4.412;2023-03-01T12:50:02;7.20;90.10
27797;DHT22;15177;50.844;4.412;2023-03-01T12:52:51;7.20;89.30
27797;DHT22;15177;50.844;4.412;2023-03-01T12:55:33;7.10;90.10
27797;DHT22;15177;50.844;4.412;2023-03-01T12:58:30;7.20;90.80
27797;DHT22;15177;50.844;4.412;2023-03-01T13:04:08;7.40;90.80
27797;DHT22;15177;50.844;4.412;2023-03-01T13:06:40;7.60;90.00
27797;DHT22;15177;50.844;4.412;2023-03-01T13:11:50;7.80;87.60
27797;DHT22;15177;50.844;4.412;2023-03-01T13:14:35;7.80;86.50
27797;DHT22;15177;50.844;4.412;2023-03-01T13:17:01;7.50;87.90
27797;DHT22;15177;50.844;4.412;2023-03-01T13:19:28;7.40;88.60
27797;DHT22;15177;50.844;4.412;2023-03-01T13:22:31;7.30;89.30
27797;DHT22;15177;50.844;4.412;2023-03-01T13:25:11;7.30;90.00
27797;DHT22;15177;50.844;4.412;2023-03-01T13:27:38;7.20;88.50
27797;DHT22;15177;50.844;4.412;2023-03-01T13:30:12;7.20;88.70
27797;DHT22;15177;50.844;4.412;2023-03-01T13:32:50;7.20;88.60
27797;DHT22;15177;50.844;4.412;2023-03-01T13:37:46;7.30;88.90
27797;DHT22;15177;50.844;4.412;2023-03-01T13:42:45;7.10;87.80
27797;DHT22;15177;50.844;4.412;2023-03-01T13:47:58;7.30;89.00
27797;DHT22;15177;50.844;4.412;2023-03-01T13:50:28;7.40;87.80
27797;DHT22;15177;50.844;4.412;2023-03-01T13:53:00;7.50;87.40
27797;DHT22;15177;50.844;4.412;2023-03-01T13:58:14;7.50;85.90
27797;DHT22;15177;50.844;4.412;2023-03-01T14:00:40;7.40;87.80
27797;DHT22;15177;50.844;4.412;2023-03-01T14:03:18;7.50;88.30
27797;DHT22;15177;50.844;4.412;2023-03-01T14:08:28;7.40;86.70
27797;DHT22;15177;50.844;4.412;2023-03-01T14:19:27;7.50;82.90
27797;DHT22;15177;50.844;4.412;2023-03-01T14:24:47;7.40;83.90
27797;DHT22;15177;50.844;4.412;2023-03-01T14:27:16;7.30;85.30
27797;DHT22;15177;50.844;4.412;2023-03-01T14:29:42;7.30;87.10
27797;DHT22;15177;50.844;4.412;2023-03-01T14:32:16;7.40;88.10
27797;DHT22;15177;50.844;4.412;2023-03-01T14:34:46;7.50;86.50
27797;DHT22;15177;50.844;4.412;2023-03-01T14:37:29;7.40;86.50
27797;DHT22;15177;50.844;4.412;2023-03-01T14:39:57;7.50;85.40
27797;DHT22;15177;50.844;4.412;2023-03-01T14:42:26;7.60;84.30
27797;DHT22;15177;50.844;4.412;2023-03-01T14:44:55;7.40;85.50
27797;DHT22;15177;50.844;4.412;2023-03-01T14:47:34;7.40;86.70
27797;DHT22;15177;50.844;4.412;2023-03-01T14:50:21;7.30;88.80
27797;DHT22;15177;50.844;4.412;2023-03-01T14:52:49;7.60;88.00
27797;DHT22;15177;50.844;4.412;2023-03-01T14:55:19;7.60;87.10
27797;DHT22;15177;50.844;4.412;2023-03-01T14:57:48;7.50;87.00
27797;DHT22;15177;50.844;4.412;2023-03-01T15:00:24;7.40;87.90
27797;DHT22;15177;50.844;4.412;2023-03-01T15:02:53;7.60;88.40
27797;DHT22;15177;50.844;4.412;2023-03-01T15:05:31;7.60;86.80
27797;DHT22;15177;50.844;4.412;2023-03-01T15:08:00;7.60;85.60
27797;DHT22;15177;50.844;4.412;2023-03-01T15:10:29;7.70;85.60
27797;DHT22;15177;50.844;4.412;2023-03-01T15:12:56;7.70;85.80
27797;DHT22;15177;50.844;4.412;2023-03-01T15:17:58;7.80;86.80
27797;DHT22;15177;50.844;4.412;2023-03-01T15:20:26;7.80;86.90
27797;DHT22;15177;50.844;4.412;2023-03-01T15:22:56;7.80;87.10
27797;DHT22;15177;50.844;4.412;2023-03-01T15:25:25;7.70;88.20
27797;DHT22;15177;50.844;4.412;2023-03-01T15:27:53;7.70;88.20
27797;DHT22;15177;50.844;4.412;2023-03-01T15:32:48;7.60;88.50
27797;DHT22;15177;50.844;4.412;2023-03-01T15:35:54;7.60;88.50
27797;DHT22;15177;50.844;4.412;2023-03-01T15:38:33;7.60;88.30
27797;DHT22;15177;50.844;4.412;2023-03-01T15:41:03;7.70;88.00
27797;DHT22;15177;50.844;4.412;2023-03-01T15:43:45;7.70;88.60
27797;DHT22;15177;50.844;4.412;2023-03-01T15:46:21;7.80;87.70
27797;DHT22;15177;50.844;4.412;2023-03-01T15:48:52;7.60;87.90
27797;DHT22;15177;50.844;4.412;2023-03-01T15:51:21;7.60;87.40
27797;DHT22;15177;50.844;4.412;2023-03-01T15:53:52;7.50;87.60
27797;DHT22;15177;50.844;4.412;2023-03-01T15:56:18;7.70;87.70
27797;DHT22;15177;50.844;4.412;2023-03-01T15:58:44;7.70;86.80
27797;DHT22;15177;50.844;4.412;2023-03-01T16:01:15;7.70;86.80
27797;DHT22;15177;50.844;4.412;2023-03-01T16:03:42;7.40;88.00
27797;DHT22;15177;50.844;4.412;2023-03-01T16:06:12;7.40;89.30
27797;DHT22;15177;50.844;4.412;2023-03-01T16:08:39;7.50;89.00
27797;DHT22;15177;50.844;4.412;2023-03-01T16:11:17;7.60;88.30
27797;DHT22;15177;50.844;4.412;2023-03-01T16:13:44;7.60;87.40
27797;DHT22;15177;50.844;4.412;2023-03-01T16:16:12;7.60;88.00
27797;DHT22;15177;50.844;4.412;2023-03-01T16:18:43;7.50;86.80
27797;DHT22;15177;50.844;4.412;2023-03-01T16:21:13;7.30;85.20
27797;DHT22;15177;50.844;4.412;2023-03-01T16:23:41;7.10;86.40
27797;DHT22;15177;50.844;4.412;2023-03-01T16:26:07;7.10;87.60
27797;DHT22;15177;50.844;4.412;2023-03-01T16:28:32;7.20;88.70
27797;DHT22;15177;50.844;4.412;2023-03-01T16:30:58;7.20;90.40
27797;DHT22;15177;50.844;4.412;2023-03-01T16:33:27;7.20;90.50
27797;DHT22;15177;50.844;4.412;2023-03-01T16:35:52;7.30;90.30
27797;DHT22;15177;50.844;4.412;2023-03-01T16:38:18;7.30;90.00
27797;DHT22;15177;50.844;4.412;2023-03-01T16:40:48;7.30;88.00
27797;DHT22;15177;50.844;4.412;2023-03-01T16:43:14;7.20;89.30
27797;DHT22;15177;50.844;4.412;2023-03-01T16:45:40;7.10;90.20
27797;DHT22;15177;50.844;4.412;2023-03-01T16:48:10;7.10;90.40
27797;DHT22;15177;50.844;4.412;2023-03-01T16:50:36;7.00;90.90
27797;DHT22;15177;50.844;4.412;2023-03-01T16:53:01;7.10;91.30
27797;DHT22;15177;50.844;4.412;2023-03-01T16:55:27;7.10;91.80
27797;DHT22;15177;50.844;4.412;2023-03-01T16:57:53;7.10;92.20
27797;DHT22;15177;50.844;4.412;2023-03-01T17:00:20;7.20;92.10
27797;DHT22;15177;50.844;4.412;2023-03-01T17:02:50;7.00;92.70
27797;DHT22;15177;50.844;4.412;2023-03-01T17:05:17;7.00;92.70
27797;DHT22;15177;50.844;4.412;2023-03-01T17:07:47;7.00;93.20
27797;DHT22;15177;50.844;4.412;2023-03-01T17:10:12;6.90;93.10
27797;DHT22;15177;50.844;4.412;2023-03-01T17:12:38;6.90;93.20
27797;DHT22;15177;50.844;4.412;2023-03-01T17:15:05;7.00;93.30
27797;DHT22;15177;50.844;4.412;2023-03-01T17:17:31;7.00;93.60
27797;DHT22;15177;50.844;4.412;2023-03-01T17:19:57;6.80;94.20
27797;DHT22;15177;50.844;4.412;2023-03-01T17:22:22;6.70;94.90
27797;DHT22;15177;50.844;4.412;2023-03-01T17:24:49;6.70;95.50
27797;DHT22;15177;50.844;4.412;2023-03-01T17:27:15;6.70;95.50
27797;DHT22;15177;50.844;4.412;2023-03-01T17:29:42;6.70;95.70
27797;DHT22;15177;50.844;4.412;2023-03-01T17:32:08;6.60;96.10
27797;DHT22;15177;50.844;4.412;2023-03-01T17:34:33;6.50;96.30
27797;DHT22;15177;50.844;4.412;2023-03-01T17:37:00;6.60;96.30
27797;DHT22;15177;50.844;4.412;2023-03-01T17:39:25;6.40;96.60
27797;DHT22;15177;50.844;4.412;2023-03-01T17:41:56;6.40;96.60
27797;DHT22;15177;50.844;4.412;2023-03-01T17:44:23;6.40;96.80
27797;DHT22;15177;50.844;4.412;2023-03-01T17:46:48;6.40;96.90
27797;DHT22;15177;50.844;4.412;2023-03-01T17:49:14;6.30;96.90
27797;DHT22;15177;50.844;4.412;2023-03-01T17:51:41;6.20;97.20
27797;DHT22;15177;50.844;4.412;2023-03-01T17:54:08;6.10;97.60
27797;DHT22;15177;50.844;4.412;2023-03-01T17:56:34;6.10;97.70
27797;DHT22;15177;50.844;4.412;2023-03-01T17:59:04;6.10;97.60
27797;DHT22;15177;50.844;4.412;2023-03-01T18:01:30;6.00;98.20
27797;DHT22;15177;50.844;4.412;2023-03-01T18:03:55;6.00;98.10
27797;DHT22;15177;50.844;4.412;2023-03-01T18:06:26;5.90;98.10